createdAt,value
2019-05-03T00:02:27.482Z,100651.34
2019-05-03T00:03:34.473Z,100650.56
2019-05-03T00:04:42.278Z,100655.44
2019-05-03T00:05:52.494Z,100656.75
2019-05-03T00:06:59.605Z,100653.45
2019-05-03T00:08:08.680Z,100654.34
2019-05-03T00:09:17.461Z,100649.55
2019-05-03T00:10:24.704Z,100652.67
2019-05-03T00:11:32.693Z,100651.36
2019-05-03T00:12:39.819Z,100655.92
2019-05-03T00:13:47.073Z,100650.47
2019-05-03T00:14:58.589Z,100652.91
2019-05-03T00:16:14.811Z,100653.78
2019-05-03T00:17:22.473Z,100653.83
2019-05-03T00:18:29.554Z,100651.30
2019-05-03T00:19:36.618Z,100650.98
2019-05-03T00:20:43.701Z,100650.23
2019-05-03T00:21:52.568Z,100657.75
2019-05-03T00:23:00.099Z,100660.77
2019-05-03T00:24:06.853Z,100662.84
2019-05-03T00:25:13.696Z,100660.77
2019-05-03T00:26:22.416Z,100658.38
2019-05-03T00:27:28.939Z,100660.79
2019-05-03T00:28:35.734Z,100657.87
2019-05-03T00:29:42.498Z,100661.32
2019-05-03T00:30:49.253Z,100654.15
2019-05-03T00:31:56.003Z,100656.41
2019-05-03T00:33:02.991Z,100652.98
2019-05-03T00:34:13.109Z,100656.73
2019-05-03T00:35:26.340Z,100655.88
2019-05-03T00:36:39.137Z,100657.09
2019-05-03T00:37:47.731Z,100659.23
2019-05-03T00:38:57.915Z,100654.73
2019-05-03T00:40:06.950Z,100653.80
2019-05-03T00:41:14.073Z,100659.69
2019-05-03T00:42:22.499Z,100659.62
2019-05-03T00:43:31.776Z,100666.70
2019-05-03T00:44:39.043Z,100662.88
2019-05-03T00:45:46.147Z,100661.41
2019-05-03T00:46:53.094Z,100658.79
2019-05-03T00:48:01.740Z,100662.90
2019-05-03T00:49:08.737Z,100661.56
2019-05-03T00:50:15.688Z,100658.10
2019-05-03T00:51:22.676Z,100656.52
2019-05-03T00:52:31.699Z,100655.05
2019-05-03T00:53:38.967Z,100656.38
2019-05-03T00:54:45.761Z,100652.87
2019-05-03T00:55:52.614Z,100651.01
2019-05-03T00:56:59.409Z,100656.70
2019-05-03T00:58:06.458Z,100656.38
2019-05-03T00:59:13.185Z,100658.94
2019-05-03T01:00:21.773Z,100659.77
2019-05-03T01:01:28.773Z,100651.31
2019-05-03T01:02:35.533Z,100657.07
2019-05-03T01:03:42.498Z,100657.43
2019-05-03T01:04:49.328Z,100658.20
2019-05-03T01:05:56.598Z,100658.60
2019-05-03T01:07:03.328Z,100658.63
2019-05-03T01:08:10.092Z,100660.83
2019-05-03T01:09:20.235Z,100653.44
2019-05-03T01:10:27.293Z,100661.02
2019-05-03T01:11:34.231Z,100657.30
2019-05-03T01:12:41.670Z,100664.69
2019-05-03T01:13:48.585Z,100660.41
2019-05-03T01:14:56.495Z,100662.52
2019-05-03T01:16:07.891Z,100663.44
2019-05-03T01:17:14.647Z,100666.83
2019-05-03T01:18:21.939Z,100668.05
2019-05-03T01:19:29.159Z,100670.16
2019-05-03T01:20:36.214Z,100668.02
2019-05-03T01:21:43.435Z,100664.16
2019-05-03T01:22:51.908Z,100663.24
2019-05-03T01:23:58.820Z,100662.52
2019-05-03T01:25:06.254Z,100659.66
2019-05-03T01:26:13.012Z,100663.91
2019-05-03T01:27:21.810Z,100663.38
2019-05-03T01:28:28.517Z,100666.94
2019-05-03T01:29:36.119Z,100666.56
2019-05-03T01:30:43.298Z,100671.66
2019-05-03T01:31:50.360Z,100667.46
2019-05-03T01:32:57.480Z,100659.79
2019-05-03T01:34:04.211Z,100667.04
2019-05-03T01:35:12.309Z,100670.06
2019-05-03T01:36:20.132Z,100669.81
2019-05-03T01:37:27.299Z,100665.48
2019-05-03T01:38:34.194Z,100665.79
2019-05-03T01:39:42.151Z,100671.80
2019-05-03T01:40:49.370Z,100669.21
2019-05-03T01:41:56.271Z,100670.52
2019-05-03T01:43:03.017Z,100670.56
2019-05-03T01:44:10.090Z,100668.43
2019-05-03T01:45:16.973Z,100662.14
2019-05-03T01:46:24.574Z,100660.78
2019-05-03T01:47:41.917Z,100667.20
2019-05-03T01:49:07.687Z,100666.00
2019-05-03T01:50:22.912Z,100665.61
2019-05-03T01:51:39.141Z,100669.03
2019-05-03T01:52:46.095Z,100667.70
2019-05-03T01:53:53.176Z,100669.34
2019-05-03T01:55:03.102Z,100671.51
2019-05-03T01:56:09.310Z,100668.17
2019-05-03T01:57:16.593Z,100678.98
2019-05-03T01:58:24.987Z,100681.47
2019-05-03T01:59:32.130Z,100674.16
2019-05-03T02:00:39.789Z,100679.36
2019-05-03T02:02:07.171Z,100678.47
2019-05-03T02:03:21.789Z,100675.91
2019-05-03T02:04:39.500Z,100686.94
2019-05-03T02:05:52.046Z,100684.49
2019-05-03T02:06:59.194Z,100682.33
2019-05-03T02:08:05.955Z,100682.03
2019-05-03T02:09:12.909Z,100680.84
2019-05-03T02:10:20.023Z,100681.35
2019-05-03T02:11:27.045Z,100683.02
2019-05-03T02:12:33.780Z,100685.19
2019-05-03T02:13:42.634Z,100681.72
2019-05-03T02:14:49.865Z,100686.45
2019-05-03T02:15:57.915Z,100683.59
2019-05-03T02:17:04.863Z,100686.20
2019-05-03T02:18:14.982Z,100690.44
2019-05-03T02:19:21.977Z,100689.95
2019-05-03T02:20:29.234Z,100690.77
2019-05-03T02:21:36.325Z,100697.48
2019-05-03T02:22:43.468Z,100696.75
2019-05-03T02:23:52.086Z,100698.87
2019-05-03T02:24:59.030Z,100703.14
2019-05-03T02:26:06.358Z,100705.30
2019-05-03T02:27:13.123Z,100704.53
2019-05-03T02:28:21.983Z,100710.17
2019-05-03T02:29:28.669Z,100707.14
2019-05-03T02:30:35.423Z,100709.59
2019-05-03T02:31:43.554Z,100709.98
2019-05-03T02:32:53.288Z,100710.25
2019-05-03T02:33:59.513Z,100714.57
2019-05-03T02:35:07.491Z,100709.14
2019-05-03T02:36:14.252Z,100711.61
2019-05-03T02:37:22.504Z,100709.88
2019-05-03T02:38:29.434Z,100709.14
2019-05-03T02:39:36.852Z,100709.62
2019-05-03T02:40:43.928Z,100705.86
2019-05-03T02:41:55.269Z,100709.82
2019-05-03T02:43:09.106Z,100707.27
2019-05-03T02:44:18.069Z,100705.86
2019-05-03T02:45:27.874Z,100705.13
2019-05-03T02:46:52.605Z,100713.53
2019-05-03T02:48:06.747Z,100713.52
2019-05-03T02:49:45.512Z,100716.22
2019-05-03T02:50:55.890Z,100719.72
2019-05-03T02:52:01.569Z,100713.80
2019-05-03T02:53:08.316Z,100709.13
2019-05-03T02:54:15.666Z,100712.36
2019-05-03T02:55:25.696Z,100715.39
2019-05-03T02:56:31.523Z,100712.38
2019-05-03T02:57:39.315Z,100717.99
2019-05-03T02:58:46.181Z,100714.13
2019-05-03T02:59:54.959Z,100713.69
2019-05-03T03:01:06.579Z,100718.44
2019-05-03T03:02:15.067Z,100723.59
2019-05-03T03:03:21.162Z,100716.77
2019-05-03T03:04:29.221Z,100715.62
2019-05-03T03:05:36.547Z,100721.53
2019-05-03T03:06:47.664Z,100720.31
2019-05-03T03:07:56.018Z,100716.86
2019-05-03T03:09:06.703Z,100722.44
2019-05-03T03:10:16.393Z,100716.47
2019-05-03T03:11:26.444Z,100718.20
2019-05-03T03:12:35.808Z,100721.17
2019-05-03T03:13:45.750Z,100718.71
2019-05-03T03:14:56.446Z,100715.41
2019-05-03T03:16:07.174Z,100713.85
2019-05-03T03:17:17.047Z,100715.99
2019-05-03T03:18:25.575Z,100719.45
2019-05-03T03:19:35.418Z,100725.48
2019-05-03T03:20:46.117Z,100722.20
2019-05-03T03:21:56.707Z,100721.84
2019-05-03T03:23:06.124Z,100720.62
2019-05-03T03:24:20.484Z,100728.30
2019-05-03T03:25:35.963Z,100731.64
2019-05-03T03:26:43.497Z,100736.33
2019-05-03T03:27:55.697Z,100731.70
2019-05-03T03:29:07.995Z,100733.97
2019-05-03T03:30:38.529Z,100728.52
2019-05-03T03:32:29.926Z,100735.35
2019-05-03T03:33:40.113Z,100738.72
2019-05-03T03:35:01.392Z,100734.13
2019-05-03T03:36:31.530Z,100735.87
2019-05-03T03:37:11.508Z,100731.68
2019-05-03T03:38:18.841Z,100735.04
2019-05-03T03:39:26.520Z,100734.69
2019-05-03T03:40:35.828Z,100732.63
2019-05-03T03:41:45.293Z,100740.68
2019-05-03T03:42:55.821Z,100741.49
2019-05-03T03:44:05.802Z,100743.14
2019-05-03T03:45:13.900Z,100743.22
2019-05-03T03:46:25.282Z,100740.21
2019-05-03T03:47:37.125Z,100745.78
2019-05-03T03:48:46.107Z,100751.69
2019-05-03T03:49:55.607Z,100746.22
2019-05-03T03:51:05.207Z,100747.98
2019-05-03T03:52:16.011Z,100751.42
2019-05-03T03:53:26.335Z,100747.17
2019-05-03T03:54:38.130Z,100744.23
2019-05-03T03:55:49.076Z,100748.44
2019-05-03T03:57:03.832Z,100753.52
2019-05-03T03:58:06.663Z,100760.27
2019-05-03T03:59:15.355Z,100756.44
2019-05-03T04:00:22.233Z,100754.77
2019-05-03T04:01:30.013Z,100767.06
2019-05-03T04:02:38.647Z,100757.27
2019-05-03T04:03:46.126Z,100759.79
2019-05-03T04:04:55.983Z,100765.36
2019-05-03T04:06:02.587Z,100763.19
2019-05-03T04:07:09.399Z,100768.70
2019-05-03T04:08:16.499Z,100765.33
2019-05-03T04:09:25.555Z,100766.98
2019-05-03T04:10:35.028Z,100773.34
2019-05-03T04:11:41.923Z,100770.78
2019-05-03T04:12:49.124Z,100776.23
2019-05-03T04:13:56.500Z,100780.42
2019-05-03T04:15:41.191Z,100773.53
2019-05-03T04:17:02.306Z,100776.48
2019-05-03T04:18:36.149Z,100779.40
2019-05-03T04:19:45.475Z,100778.15
2019-05-03T04:20:52.635Z,100770.57
2019-05-03T04:22:00.076Z,100779.42
2019-05-03T04:23:07.370Z,100777.29
2019-05-03T04:24:16.308Z,100776.36
2019-05-03T04:25:26.271Z,100781.39
2019-05-03T04:26:32.938Z,100781.36
2019-05-03T04:27:40.190Z,100784.64
2019-05-03T04:28:47.646Z,100777.00
2019-05-03T04:29:55.787Z,100784.98
2019-05-03T04:31:06.011Z,100786.20
2019-05-03T04:32:12.073Z,100779.63
2019-05-03T04:33:18.868Z,100784.20
2019-05-03T04:34:26.390Z,100790.03
2019-05-03T04:35:36.055Z,100787.40
2019-05-03T04:36:41.904Z,100790.72
2019-05-03T04:37:48.756Z,100790.88
2019-05-03T04:38:56.356Z,100787.91
2019-05-03T04:40:06.100Z,100790.83
2019-05-03T04:41:12.102Z,100798.38
2019-05-03T04:42:19.164Z,100802.55
2019-05-03T04:43:26.710Z,100804.15
2019-05-03T04:44:35.837Z,100801.06
2019-05-03T04:45:45.478Z,100800.59
2019-05-03T04:46:54.855Z,100806.53
2019-05-03T04:47:59.748Z,100808.59
2019-05-03T04:49:06.598Z,100809.32
2019-05-03T04:50:16.319Z,100809.28
2019-05-03T04:51:25.579Z,100810.48
2019-05-03T04:52:31.874Z,100814.21
2019-05-03T04:53:41.250Z,100819.38
2019-05-03T04:54:56.344Z,100820.76
2019-05-03T04:56:05.540Z,100818.56
2019-05-03T04:57:11.790Z,100823.93
2019-05-03T04:58:19.031Z,100819.53
2019-05-03T04:59:25.956Z,100821.14
2019-05-03T05:00:35.582Z,100824.12
2019-05-03T05:01:45.876Z,100826.63
2019-05-03T05:02:51.925Z,100827.81
2019-05-03T05:03:58.746Z,100831.61
2019-05-03T05:05:07.983Z,100833.70
2019-05-03T05:06:15.453Z,100834.14
2019-05-03T05:07:22.359Z,100830.72
2019-05-03T05:08:29.343Z,100835.46
2019-05-03T05:09:36.606Z,100837.69
2019-05-03T05:10:45.438Z,100833.83
2019-05-03T05:11:54.493Z,100832.53
2019-05-03T05:13:00.900Z,100836.41
2019-05-03T05:14:07.891Z,100838.66
2019-05-03T05:15:15.933Z,100837.80
2019-05-03T05:16:25.019Z,100831.78
2019-05-03T05:17:45.908Z,100836.45
2019-05-03T05:18:57.854Z,100839.42
2019-05-03T05:20:14.592Z,100837.66
2019-05-03T05:21:27.912Z,100838.03
2019-05-03T05:22:35.048Z,100840.92
2019-05-03T05:23:58.578Z,100842.61
2019-05-03T05:25:10.839Z,100841.70
2019-05-03T05:26:19.863Z,100845.62
2019-05-03T05:27:49.445Z,100843.39
2019-05-03T05:28:55.138Z,100842.52
2019-05-03T05:30:04.572Z,100844.36
2019-05-03T05:31:12.182Z,100847.31
2019-05-03T05:32:18.983Z,100851.24
2019-05-03T05:33:25.782Z,100852.88
2019-05-03T05:34:34.779Z,100851.14
2019-05-03T05:35:41.530Z,100854.08
2019-05-03T05:36:48.588Z,100856.53
2019-05-03T05:37:55.351Z,100853.38
2019-05-03T05:39:02.138Z,100863.08
2019-05-03T05:40:09.994Z,100861.33
2019-05-03T05:41:17.115Z,100860.11
2019-05-03T05:42:25.090Z,100856.73
2019-05-03T05:43:31.942Z,100863.90
2019-05-03T05:44:38.831Z,100862.25
2019-05-03T05:45:45.607Z,100860.84
2019-05-03T05:47:04.733Z,100862.45
2019-05-03T05:48:12.545Z,100859.45
2019-05-03T05:49:38.546Z,100863.20
2019-05-03T05:50:45.718Z,100859.27
2019-05-03T05:51:54.206Z,100856.83
2019-05-03T05:53:00.938Z,100859.51
2019-05-03T05:54:07.816Z,100861.20
2019-05-03T05:55:34.439Z,100861.63
2019-05-03T05:56:55.628Z,100862.44
2019-05-03T05:58:31.045Z,100862.59
2019-05-03T05:59:50.485Z,100861.38
2019-05-03T06:01:14.772Z,100864.64
2019-05-03T06:02:22.337Z,100859.40
2019-05-03T06:03:29.077Z,100866.49
2019-05-03T06:04:35.826Z,100867.70
2019-05-03T06:05:44.604Z,100858.28
2019-05-03T06:07:10.018Z,100860.78
2019-05-03T06:08:37.751Z,100863.88
2019-05-03T06:10:05.144Z,100866.24
2019-05-03T06:11:37.010Z,100865.41
2019-05-03T06:12:59.266Z,100862.43
2019-05-03T06:14:15.294Z,100864.79
2019-05-03T06:15:36.926Z,100861.61
2019-05-03T06:16:58.007Z,100865.62
2019-05-03T06:18:08.181Z,100867.95
2019-05-03T06:19:28.421Z,100868.36
2019-05-03T06:20:47.174Z,100863.19
2019-05-03T06:22:15.517Z,100862.84
2019-05-03T06:23:29.552Z,100864.47
2019-05-03T06:24:40.965Z,100866.53
2019-05-03T06:25:48.052Z,100868.09
2019-05-03T06:27:00.442Z,100877.94
2019-05-03T06:28:18.381Z,100874.89
2019-05-03T06:29:20.506Z,100871.92
2019-05-03T06:30:58.173Z,100870.84
2019-05-03T06:32:15.411Z,100869.59
2019-05-03T06:33:24.338Z,100874.63
2019-05-03T06:34:31.714Z,100877.85
2019-05-03T06:35:38.446Z,100880.17
2019-05-03T06:36:46.848Z,100876.52
2019-05-03T06:37:54.557Z,100880.41
2019-05-03T06:39:01.828Z,100878.27
2019-05-03T06:40:10.240Z,100873.87
2019-05-03T06:41:17.082Z,100885.23
2019-05-03T06:42:25.477Z,100874.95
2019-05-03T06:43:34.659Z,100877.17
2019-05-03T06:44:41.245Z,100876.38
2019-05-03T06:45:50.415Z,100875.38
2019-05-03T06:47:01.093Z,100876.25
2019-05-03T06:48:05.576Z,100876.70
2019-05-03T06:49:14.954Z,100870.91
2019-05-03T06:50:25.184Z,100870.72
2019-05-03T06:51:29.781Z,100871.02
2019-05-03T06:52:36.998Z,100876.43
2019-05-03T06:53:47.608Z,100870.48
2019-05-03T06:54:52.262Z,100875.91
2019-05-03T06:55:59.365Z,100871.62
2019-05-03T06:57:09.604Z,100870.76
2019-05-03T06:58:30.376Z,100872.54
2019-05-03T06:59:30.601Z,100873.14
2019-05-03T07:00:59.235Z,100863.42
2019-05-03T07:02:25.294Z,100868.96
2019-05-03T07:03:38.917Z,100868.47
2019-05-03T07:04:47.700Z,100872.48
2019-05-03T07:06:12.291Z,100871.09
2019-05-03T07:07:41.030Z,100866.75
2019-05-03T07:08:58.838Z,100868.95
2019-05-03T07:10:15.025Z,100872.79
2019-05-03T07:11:21.928Z,100870.73
2019-05-03T07:12:47.586Z,100876.44
2019-05-03T07:13:55.001Z,100882.00
2019-05-03T07:15:02.266Z,100865.50
2019-05-03T07:16:09.826Z,100875.69
2019-05-03T07:17:16.927Z,100876.38
2019-05-03T07:18:24.754Z,100875.80
2019-05-03T07:19:32.002Z,100877.08
2019-05-03T07:20:58.038Z,100881.95
2019-05-03T07:22:05.142Z,100876.46
2019-05-03T07:23:12.055Z,100881.50
2019-05-03T07:24:22.263Z,100883.22
2019-05-03T07:25:27.582Z,100878.70
2019-05-03T07:26:34.487Z,100882.42
2019-05-03T07:27:41.308Z,100881.05
2019-05-03T07:28:50.161Z,100885.13
2019-05-03T07:29:56.599Z,100885.96
2019-05-03T07:31:04.798Z,100885.32
2019-05-03T07:32:11.710Z,100882.50
2019-05-03T07:33:25.451Z,100885.70
2019-05-03T07:34:34.919Z,100885.47
2019-05-03T07:35:41.202Z,100889.81
2019-05-03T07:36:47.968Z,100890.61
2019-05-03T07:37:55.319Z,100887.95
2019-05-03T07:39:02.658Z,100890.61
2019-05-03T07:40:10.110Z,100886.64
2019-05-03T07:41:17.344Z,100891.09
2019-05-03T07:42:25.627Z,100890.09
2019-05-03T07:43:32.688Z,100890.80
2019-05-03T07:44:39.439Z,100884.80
2019-05-03T07:45:46.961Z,100891.59
2019-05-03T07:46:55.460Z,100891.27
2019-05-03T07:48:02.170Z,100889.27
2019-05-03T07:49:08.959Z,100892.98
2019-05-03T07:50:16.090Z,100888.75
2019-05-03T07:51:24.685Z,100891.83
2019-05-03T07:52:31.632Z,100888.84
2019-05-03T07:53:38.392Z,100894.30
2019-05-03T07:54:45.722Z,100891.92
2019-05-03T07:56:06.410Z,100890.47
2019-05-03T07:57:36.249Z,100890.75
2019-05-03T07:58:59.108Z,100890.89
2019-05-03T07:59:55.686Z,100883.72
2019-05-03T08:01:08.853Z,100890.69
2019-05-03T08:02:14.493Z,100889.41
2019-05-03T08:03:21.682Z,100894.27
2019-05-03T08:04:28.797Z,100889.19
2019-05-03T08:05:35.634Z,100888.14
2019-05-03T08:06:44.454Z,100896.60
2019-05-03T08:07:50.991Z,100890.94
2019-05-03T08:08:57.868Z,100895.42
2019-05-03T08:10:05.578Z,100897.40
2019-05-03T08:11:14.393Z,100896.31
2019-05-03T08:12:21.170Z,100898.43
2019-05-03T08:13:27.957Z,100894.22
2019-05-03T08:14:35.659Z,100896.88
2019-05-03T08:15:44.955Z,100902.48
2019-05-03T08:16:51.343Z,100893.26
2019-05-03T08:17:58.163Z,100892.52
2019-05-03T08:19:05.482Z,100888.95
2019-05-03T08:20:14.307Z,100897.31
2019-05-03T08:21:21.121Z,100893.19
2019-05-03T08:22:27.905Z,100896.48
2019-05-03T08:23:35.363Z,100889.65
2019-05-03T08:24:44.792Z,100896.00
2019-05-03T08:25:51.661Z,100898.80
2019-05-03T08:26:58.814Z,100888.95
2019-05-03T08:28:05.694Z,100887.64
2019-05-03T08:29:16.905Z,100884.34
2019-05-03T08:30:26.859Z,100885.64
2019-05-03T08:31:54.555Z,100879.04
2019-05-03T08:33:15.285Z,100886.07
2019-05-03T08:34:39.781Z,100880.45
2019-05-03T08:35:47.909Z,100883.95
2019-05-03T08:37:00.111Z,100887.14
2019-05-03T08:38:07.268Z,100877.94
2019-05-03T08:39:15.814Z,100874.97
2019-05-03T08:40:24.665Z,100874.54
2019-05-03T08:41:35.065Z,100872.48
2019-05-03T08:42:42.007Z,100882.56
2019-05-03T08:43:48.781Z,100878.06
2019-05-03T08:44:55.533Z,100873.88
2019-05-03T08:46:04.606Z,100879.84
2019-05-03T08:47:11.530Z,100877.09
2019-05-03T08:48:18.713Z,100874.21
2019-05-03T08:49:25.685Z,100875.95
2019-05-03T08:50:34.789Z,100879.23
2019-05-03T08:51:41.524Z,100883.09
2019-05-03T08:52:48.303Z,100882.91
2019-05-03T08:53:56.087Z,100881.55
2019-05-03T08:55:05.125Z,100877.78
2019-05-03T08:56:11.865Z,100878.10
2019-05-03T08:57:18.754Z,100879.42
2019-05-03T08:58:25.719Z,100881.78
2019-05-03T08:59:32.938Z,100870.60
2019-05-03T09:00:41.483Z,100873.19
2019-05-03T09:01:48.929Z,100871.08
2019-05-03T09:02:55.716Z,100868.70
2019-05-03T09:04:04.822Z,100867.80
2019-05-03T09:05:12.528Z,100867.41
2019-05-03T09:06:19.367Z,100870.89
2019-05-03T09:07:26.347Z,100869.16
2019-05-03T09:08:35.387Z,100866.70
2019-05-03T09:09:59.941Z,100868.42
2019-05-03T09:11:12.459Z,100864.77
2019-05-03T09:12:19.194Z,100870.53
2019-05-03T09:13:26.064Z,100867.03
2019-05-03T09:14:42.645Z,100867.66
2019-05-03T09:15:44.566Z,100869.17
2019-05-03T09:16:51.498Z,100869.65
2019-05-03T09:17:59.104Z,100867.55
2019-05-03T09:19:05.938Z,100866.73
2019-05-03T09:20:12.948Z,100865.22
2019-05-03T09:21:19.744Z,100859.04
2019-05-03T09:22:26.525Z,100862.77
2019-05-03T09:23:35.565Z,100858.91
2019-05-03T09:24:42.217Z,100859.61
2019-05-03T09:25:49.155Z,100857.59
2019-05-03T09:26:56.337Z,100851.50
2019-05-03T09:28:04.711Z,100856.13
2019-05-03T09:29:11.676Z,100854.63
2019-05-03T09:30:19.030Z,100858.70
2019-05-03T09:31:25.835Z,100858.12
2019-05-03T09:32:32.625Z,100858.58
2019-05-03T09:33:40.163Z,100855.95
2019-05-03T09:34:47.235Z,100866.03
2019-05-03T09:35:54.982Z,100856.58
2019-05-03T09:37:04.587Z,100859.49
2019-05-03T09:38:10.814Z,100860.16
2019-05-03T09:39:18.222Z,100859.74
2019-05-03T09:40:25.015Z,100857.98
2019-05-03T09:41:31.813Z,100859.20
2019-05-03T09:42:39.228Z,100863.02
2019-05-03T09:43:45.988Z,100856.47
2019-05-03T09:44:52.748Z,100849.45
2019-05-03T09:45:59.789Z,100850.86
2019-05-03T09:47:06.556Z,100857.96
2019-05-03T09:48:14.999Z,100856.17
2019-05-03T09:49:22.225Z,100851.05
2019-05-03T09:50:29.305Z,100847.34
2019-05-03T09:51:36.490Z,100848.59
2019-05-03T09:52:46.869Z,100850.66
2019-05-03T09:53:57.176Z,100849.83
2019-05-03T09:55:06.098Z,100853.52
2019-05-03T09:56:15.265Z,100854.20
2019-05-03T09:57:21.989Z,100849.50
2019-05-03T09:58:29.133Z,100851.06
2019-05-03T09:59:36.042Z,100855.77
2019-05-03T10:00:44.640Z,100861.30
2019-05-03T10:01:51.833Z,100849.52
2019-05-03T10:02:58.729Z,100856.46
2019-05-03T10:04:05.579Z,100853.66
2019-05-03T10:05:12.359Z,100849.62
2019-05-03T10:06:19.157Z,100851.34
2019-05-03T10:07:26.132Z,100850.45
2019-05-03T10:08:33.011Z,100853.08
2019-05-03T10:09:39.849Z,100847.55
2019-05-03T10:11:05.526Z,100850.44
2019-05-03T10:12:17.105Z,100857.22
2019-05-03T10:13:26.977Z,100849.66
2019-05-03T10:14:32.316Z,100858.77
2019-05-03T10:15:41.559Z,100853.89
2019-05-03T10:17:16.311Z,100859.23
2019-05-03T10:18:25.260Z,100864.63
2019-05-03T10:19:39.245Z,100862.15
2019-05-03T10:20:40.301Z,100854.36
2019-05-03T10:21:48.301Z,100857.55
2019-05-03T10:22:56.815Z,100854.22
2019-05-03T10:24:05.579Z,100859.88
2019-05-03T10:25:12.518Z,100855.03
2019-05-03T10:26:19.267Z,100857.41
2019-05-03T10:27:26.017Z,100852.88
2019-05-03T10:28:33.639Z,100861.08
2019-05-03T10:29:40.400Z,100859.37
2019-05-03T10:30:47.805Z,100855.25
2019-05-03T10:32:17.091Z,100857.55
2019-05-03T10:33:28.441Z,100847.52
2019-05-03T10:34:35.721Z,100843.54
2019-05-03T10:35:45.096Z,100843.31
2019-05-03T10:36:52.011Z,100852.69
2019-05-03T10:37:59.152Z,100846.39
2019-05-03T10:39:07.421Z,100840.94
2019-05-03T10:40:17.073Z,100848.54
2019-05-03T10:41:25.089Z,100845.52
2019-05-03T10:42:35.148Z,100842.20
2019-05-03T10:43:41.391Z,100842.48
2019-05-03T10:44:48.507Z,100840.66
2019-05-03T10:45:55.779Z,100847.55
2019-05-03T10:47:05.294Z,100844.90
2019-05-03T10:48:11.955Z,100843.76
2019-05-03T10:49:18.738Z,100844.56
2019-05-03T10:50:25.488Z,100844.50
2019-05-03T10:51:35.938Z,100843.53
2019-05-03T10:52:48.678Z,100841.41
2019-05-03T10:53:58.542Z,100840.95
2019-05-03T10:55:06.132Z,100842.14
2019-05-03T10:56:23.316Z,100840.55
2019-05-03T10:57:29.687Z,100840.66
2019-05-03T10:58:37.294Z,100839.11
2019-05-03T10:59:44.792Z,100840.14
2019-05-03T11:00:56.456Z,100838.66
2019-05-03T11:02:25.290Z,100834.14
2019-05-03T11:03:34.043Z,100842.73
2019-05-03T11:04:43.679Z,100843.00
2019-05-03T11:05:49.902Z,100842.69
2019-05-03T11:06:56.742Z,100833.70
2019-05-03T11:08:05.034Z,100839.66
2019-05-03T11:09:12.321Z,100836.76
2019-05-03T11:10:19.500Z,100836.59
2019-05-03T11:11:26.350Z,100834.33
2019-05-03T11:12:34.753Z,100834.42
2019-05-03T11:13:41.979Z,100844.95
2019-05-03T11:14:48.794Z,100845.50
2019-05-03T11:15:56.844Z,100839.35
2019-05-03T11:17:05.508Z,100837.04
2019-05-03T11:18:14.589Z,100835.71
2019-05-03T11:19:21.490Z,100831.40
2019-05-03T11:20:36.897Z,100833.58
2019-05-03T11:21:45.549Z,100827.78
2019-05-03T11:22:54.711Z,100828.28
2019-05-03T11:24:01.348Z,100826.95
2019-05-03T11:25:10.156Z,100821.02
2019-05-03T11:26:16.995Z,100819.63
2019-05-03T11:27:29.409Z,100826.13
2019-05-03T11:28:36.479Z,100817.38
2019-05-03T11:29:44.999Z,100818.17
2019-05-03T11:30:57.584Z,100805.06
2019-05-03T11:32:19.338Z,100808.78
2019-05-03T11:33:32.906Z,100811.17
2019-05-03T11:34:59.434Z,100807.00
2019-05-03T11:36:31.526Z,100806.45
2019-05-03T11:37:42.840Z,100809.62
2019-05-03T11:38:49.956Z,100804.15
2019-05-03T11:39:57.261Z,100799.03
2019-05-03T11:41:05.022Z,100802.64
2019-05-03T11:42:11.849Z,100807.77
2019-05-03T11:43:21.264Z,100805.21
2019-05-03T11:44:40.414Z,100802.70
2019-05-03T11:45:47.834Z,100806.55
2019-05-03T11:46:55.143Z,100801.59
2019-05-03T11:48:02.663Z,100796.38
2019-05-03T11:49:09.441Z,100798.22
2019-05-03T11:50:16.483Z,100793.40
2019-05-03T11:51:24.877Z,100790.70
2019-05-03T11:52:31.892Z,100790.94
2019-05-03T11:53:38.718Z,100799.34
2019-05-03T11:54:45.515Z,100797.42
2019-05-03T11:55:54.958Z,100795.12
2019-05-03T11:57:05.003Z,100799.86
2019-05-03T11:58:27.115Z,100802.31
2019-05-03T11:59:34.437Z,100805.52
2019-05-03T12:00:41.470Z,100802.72
2019-05-03T12:02:00.109Z,100800.81
2019-05-03T12:03:16.013Z,100800.91
2019-05-03T12:04:24.969Z,100799.73
2019-05-03T12:05:31.507Z,100801.88
2019-05-03T12:06:39.007Z,100795.55
2019-05-03T12:07:46.064Z,100793.72
2019-05-03T12:08:52.852Z,100792.38
2019-05-03T12:10:00.534Z,100793.28
2019-05-03T12:11:08.080Z,100801.75
2019-05-03T12:12:29.472Z,100795.98
2019-05-03T12:13:36.482Z,100796.09
2019-05-03T12:15:04.283Z,100801.33
2019-05-03T12:16:19.543Z,100789.48
2019-05-03T12:17:26.879Z,100794.18
2019-05-03T12:18:44.909Z,100793.24
2019-05-03T12:19:40.632Z,100787.20
2019-05-03T12:20:49.517Z,100799.77
2019-05-03T12:21:57.384Z,100793.48
2019-05-03T12:23:06.392Z,100787.30
2019-05-03T12:24:15.936Z,100787.88
2019-05-03T12:25:23.458Z,100786.77
2019-05-03T12:26:41.790Z,100784.55
2019-05-03T12:27:40.364Z,100780.13
2019-05-03T12:28:47.764Z,100776.80
2019-05-03T12:29:54.913Z,100779.52
2019-05-03T12:31:02.037Z,100771.58
2019-05-03T12:32:08.883Z,100769.86
2019-05-03T12:33:15.759Z,100770.42
2019-05-03T12:34:25.468Z,100771.70
2019-05-03T12:35:31.924Z,100781.39
2019-05-03T12:36:39.331Z,100776.13
2019-05-03T12:37:46.269Z,100780.77
2019-05-03T12:38:54.765Z,100780.60
2019-05-03T12:40:01.673Z,100786.08
2019-05-03T12:41:08.655Z,100779.70
2019-05-03T12:42:15.401Z,100773.59
2019-05-03T12:43:22.446Z,100773.77
2019-05-03T12:44:29.667Z,100780.73
2019-05-03T12:45:36.542Z,100781.46
2019-05-03T12:46:45.014Z,100770.78
2019-05-03T12:47:52.322Z,100763.56
2019-05-03T12:48:59.135Z,100772.81
2019-05-03T12:50:06.718Z,100765.50
2019-05-03T12:51:15.325Z,100773.24
2019-05-03T12:52:22.777Z,100769.70
2019-05-03T12:53:30.673Z,100762.67
2019-05-03T12:54:37.509Z,100766.69
2019-05-03T12:55:44.644Z,100770.67
2019-05-03T12:56:51.685Z,100764.22
2019-05-03T12:57:58.744Z,100763.91
2019-05-03T12:59:41.650Z,100759.80
2019-05-03T13:01:04.557Z,100766.05
2019-05-03T13:02:16.235Z,100768.34
2019-05-03T13:03:28.425Z,100762.17
2019-05-03T13:04:37.448Z,100765.73
2019-05-03T13:05:45.081Z,100767.38
2019-05-03T13:06:58.963Z,100766.80
2019-05-03T13:08:51.105Z,100768.66
2019-05-03T13:09:58.122Z,100758.87
2019-05-03T13:11:05.493Z,100757.72
2019-05-03T13:12:14.755Z,100761.63
2019-05-03T13:13:21.511Z,100770.77
2019-05-03T13:14:28.621Z,100771.61
2019-05-03T13:15:35.395Z,100767.41
2019-05-03T13:16:44.404Z,100769.64
2019-05-03T13:17:50.924Z,100767.25
2019-05-03T13:18:57.662Z,100762.83